sensor_id;sensor_type;location;lat;lon;timestamp;P1;durP1;ratioP1;P2;durP2;ratioP2
12842;SDS011;35724;49.324;-123.118;2023-04-06T00:00:24;2.00;;;0.90;;
12842;SDS011;35724;49.324;-123.118;2023-04-06T00:10:32;2.60;;;0.90;;
12842;SDS011;35724;49.324;-123.118;2023-04-06T00:20:40;1.05;;;0.95;;
12842;SDS011;35724;49.324;-123.118;2023-04-06T00:30:47;1.30;;;1.08;;
12842;SDS011;35724;49.324;-123.118;2023-04-06T00:40:57;1.63;;;0.90;;
12842;SDS011;35724;49.324;-123.118;2023-04-06T00:51:06;1.55;;;1.10;;
12842;SDS011;35724;49.324;-123.118;2023-04-06T01:01:17;1.10;;;1.00;;
12842;SDS011;35724;49.324;-123.118;2023-04-06T01:11:27;1.83;;;1.17;;
12842;SDS011;35724;49.324;-123.118;2023-04-06T01:21:41;1.00;;;0.90;;
12842;SDS011;35724;49.324;-123.118;2023-04-06T01:32:19;1.02;;;0.95;;
12842;SDS011;35724;49.324;-123.118;2023-04-06T01:42:39;1.63;;;1.20;;
12842;SDS011;35724;49.324;-123.118;2023-04-06T01:52:53;1.17;;;1.08;;
12842;SDS011;35724;49.324;-123.118;2023-04-06T02:03:02;1.27;;;1.10;;
12842;SDS011;35724;49.324;-123.118;2023-04-06T02:13:11;1.65;;;1.20;;
12842;SDS011;35724;49.324;-123.118;2023-04-06T02:23:23;1.73;;;1.15;;
12842;SDS011;35724;49.324;-123.118;2023-04-06T02:33:33;2.30;;;1.45;;
12842;SDS011;35724;49.324;-123.118;2023-04-06T02:43:41;1.90;;;1.73;;
12842;SDS011;35724;49.324;-123.118;2023-04-06T02:53:58;2.15;;;1.60;;
12842;SDS011;35724;49.324;-123.118;2023-04-06T03:04:07;4.05;;;1.95;;
12842;SDS011;35724;49.324;-123.118;2023-04-06T03:36:11;2.78;;;1.38;;
12842;SDS011;35724;49.324;-123.118;2023-04-06T03:46:23;3.08;;;1.27;;
12842;SDS011;35724;49.324;-123.118;2023-04-06T06:28:01;1.10;;;1.00;;
12842;SDS011;35724;49.324;-123.118;2023-04-06T06:38:09;1.00;;;0.90;;
12842;SDS011;35724;49.324;-123.118;2023-04-06T07:12:20;0.82;;;0.82;;
12842;SDS011;35724;49.324;-123.118;2023-04-06T07:22:30;0.65;;;0.65;;
12842;SDS011;35724;49.324;-123.118;2023-04-06T07:32:43;0.70;;;0.70;;
12842;SDS011;35724;49.324;-123.118;2023-04-06T07:42:54;0.93;;;0.80;;
12842;SDS011;35724;49.324;-123.118;2023-04-06T07:53:18;0.80;;;0.80;;
12842;SDS011;35724;49.324;-123.118;2023-04-06T08:03:38;0.60;;;0.60;;
12842;SDS011;35724;49.324;-123.118;2023-04-06T08:46:21;0.70;;;0.70;;
12842;SDS011;35724;49.324;-123.118;2023-04-06T08:56:37;0.70;;;0.70;;
12842;SDS011;35724;49.324;-123.118;2023-04-06T09:06:48;0.80;;;0.80;;
12842;SDS011;35724;49.324;-123.118;2023-04-06T09:27:47;0.80;;;0.80;;
12842;SDS011;35724;49.324;-123.118;2023-04-06T09:38:10;0.70;;;0.70;;
12842;SDS011;35724;49.324;-123.118;2023-04-06T09:48:21;0.90;;;0.90;;
12842;SDS011;35724;49.324;-123.118;2023-04-06T09:58:36;0.82;;;0.82;;
12842;SDS011;35724;49.324;-123.118;2023-04-06T10:09:00;0.80;;;0.80;;
12842;SDS011;35724;49.324;-123.118;2023-04-06T10:19:25;0.90;;;0.88;;
12842;SDS011;35724;49.324;-123.118;2023-04-06T10:29:49;0.70;;;0.70;;
12842;SDS011;35724;49.324;-123.118;2023-04-06T10:40:19;0.80;;;0.80;;
12842;SDS011;35724;49.324;-123.118;2023-04-06T10:50:38;0.70;;;0.60;;
12842;SDS011;35724;49.324;-123.118;2023-04-06T11:11:39;0.77;;;0.55;;
12842;SDS011;35724;49.324;-123.118;2023-04-06T11:22:06;0.70;;;0.70;;
12842;SDS011;35724;49.324;-123.118;2023-04-06T11:32:26;0.50;;;0.50;;
12842;SDS011;35724;49.324;-123.118;2023-04-06T11:42:38;0.50;;;0.50;;
12842;SDS011;35724;49.324;-123.118;2023-04-06T11:53:02;0.60;;;0.60;;
12842;SDS011;35724;49.324;-123.118;2023-04-06T12:03:14;0.50;;;0.50;;
12842;SDS011;35724;49.324;-123.118;2023-04-06T12:13:28;0.50;;;0.50;;
12842;SDS011;35724;49.324;-123.118;2023-04-06T12:23:40;0.50;;;0.50;;
12842;SDS011;35724;49.324;-123.118;2023-04-06T12:33:57;0.40;;;0.40;;
12842;SDS011;35724;49.324;-123.118;2023-04-06T12:44:21;0.57;;;0.57;;
12842;SDS011;35724;49.324;-123.118;2023-04-06T12:54:35;0.50;;;0.50;;
12842;SDS011;35724;49.324;-123.118;2023-04-06T13:04:49;0.60;;;0.60;;
12842;SDS011;35724;49.324;-123.118;2023-04-06T13:15:02;0.93;;;0.93;;
12842;SDS011;35724;49.324;-123.118;2023-04-06T13:25:14;2.17;;;2.00;;
12842;SDS011;35724;49.324;-123.118;2023-04-06T14:24:01;5.00;;;3.72;;
12842;SDS011;35724;49.324;-123.118;2023-04-06T14:34:14;2.58;;;2.10;;
12842;SDS011;35724;49.324;-123.118;2023-04-06T14:44:22;1.33;;;1.10;;
12842;SDS011;35724;49.324;-123.118;2023-04-06T14:54:32;0.80;;;0.80;;
12842;SDS011;35724;49.324;-123.118;2023-04-06T15:15:16;0.68;;;0.68;;
12842;SDS011;35724;49.324;-123.118;2023-04-06T15:25:25;1.70;;;0.90;;
12842;SDS011;35724;49.324;-123.118;2023-04-06T15:35:39;0.85;;;0.80;;
12842;SDS011;35724;49.324;-123.118;2023-04-06T15:45:48;1.35;;;0.60;;
12842;SDS011;35724;49.324;-123.118;2023-04-06T16:06:46;1.35;;;0.50;;
12842;SDS011;35724;49.324;-123.118;2023-04-06T16:16:54;0.65;;;0.65;;
12842;SDS011;35724;49.324;-123.118;2023-04-06T16:27:03;0.55;;;0.55;;
12842;SDS011;35724;49.324;-123.118;2023-04-06T16:37:10;1.40;;;0.70;;
12842;SDS011;35724;49.324;-123.118;2023-04-06T16:47:18;1.15;;;0.60;;
12842;SDS011;35724;49.324;-123.118;2023-04-06T16:57:26;1.27;;;0.50;;
12842;SDS011;35724;49.324;-123.118;2023-04-06T17:07:35;0.73;;;0.73;;
12842;SDS011;35724;49.324;-123.118;2023-04-06T17:17:47;0.77;;;0.77;;
12842;SDS011;35724;49.324;-123.118;2023-04-06T17:27:56;0.70;;;0.70;;
12842;SDS011;35724;49.324;-123.118;2023-04-06T17:38:03;0.43;;;0.43;;
12842;SDS011;35724;49.324;-123.118;2023-04-06T17:48:12;1.77;;;0.60;;
12842;SDS011;35724;49.324;-123.118;2023-04-06T17:58:19;0.55;;;0.55;;
12842;SDS011;35724;49.324;-123.118;2023-04-06T18:08:28;0.73;;;0.55;;
12842;SDS011;35724;49.324;-123.118;2023-04-06T18:18:35;2.33;;;0.70;;
12842;SDS011;35724;49.324;-123.118;2023-04-06T18:28:44;0.82;;;0.70;;
12842;SDS011;35724;49.324;-123.118;2023-04-06T18:38:51;0.65;;;0.65;;
12842;SDS011;35724;49.324;-123.118;2023-04-06T18:49:01;1.50;;;0.60;;
12842;SDS011;35724;49.324;-123.118;2023-04-06T18:59:16;3.90;;;1.00;;
12842;SDS011;35724;49.324;-123.118;2023-04-06T19:09:58;3.53;;;0.90;;
12842;SDS011;35724;49.324;-123.118;2023-04-06T19:20:18;0.80;;;0.68;;
12842;SDS011;35724;49.324;-123.118;2023-04-06T19:30:27;0.75;;;0.70;;
12842;SDS011;35724;49.324;-123.118;2023-04-06T19:40:34;6.82;;;1.10;;
12842;SDS011;35724;49.324;-123.118;2023-04-06T19:50:42;1.35;;;0.68;;
12842;SDS011;35724;49.324;-123.118;2023-04-06T20:00:49;0.60;;;0.60;;
12842;SDS011;35724;49.324;-123.118;2023-04-06T20:11:02;1.42;;;0.70;;
12842;SDS011;35724;49.324;-123.118;2023-04-06T20:21:10;0.95;;;0.55;;
12842;SDS011;35724;49.324;-123.118;2023-04-06T20:31:19;0.60;;;0.60;;
12842;SDS011;35724;49.324;-123.118;2023-04-06T20:41:30;0.50;;;0.50;;
12842;SDS011;35724;49.324;-123.118;2023-04-06T20:51:41;1.40;;;1.30;;
12842;SDS011;35724;49.324;-123.118;2023-04-06T21:01:54;4.07;;;3.78;;
12842;SDS011;35724;49.324;-123.118;2023-04-06T21:12:04;2.33;;;1.60;;
12842;SDS011;35724;49.324;-123.118;2023-04-06T21:22:12;0.75;;;0.75;;
12842;SDS011;35724;49.324;-123.118;2023-04-06T21:32:21;0.50;;;0.50;;
12842;SDS011;35724;49.324;-123.118;2023-04-06T21:42:28;0.40;;;0.40;;
12842;SDS011;35724;49.324;-123.118;2023-04-06T21:52:36;0.57;;;0.57;;
12842;SDS011;35724;49.324;-123.118;2023-04-06T22:02:43;0.30;;;0.30;;
12842;SDS011;35724;49.324;-123.118;2023-04-06T22:12:52;0.57;;;0.57;;
12842;SDS011;35724;49.324;-123.118;2023-04-06T22:23:00;0.40;;;0.40;;
12842;SDS011;35724;49.324;-123.118;2023-04-06T22:33:15;0.50;;;0.50;;
12842;SDS011;35724;49.324;-123.118;2023-04-06T22:43:32;0.50;;;0.50;;
12842;SDS011;35724;49.324;-123.118;2023-04-06T22:53:41;0.30;;;0.30;;
12842;SDS011;35724;49.324;-123.118;2023-04-06T23:03:48;0.45;;;0.45;;
12842;SDS011;35724;49.324;-123.118;2023-04-06T23:14:14;0.30;;;0.30;;
12842;SDS011;35724;49.324;-123.118;2023-04-06T23:24:22;1.25;;;1.15;;
12842;SDS011;35724;49.324;-123.118;2023-04-06T23:35:25;3.28;;;1.70;;
12842;SDS011;35724;49.324;-123.118;2023-04-06T23:45:32;1.70;;;1.38;;
12842;SDS011;35724;49.324;-123.118;2023-04-06T23:55:43;1.40;;;0.82;;
